Time;durP1;ratioP1;P1;durP2;ratioP2;P2;SDS_P1;SDS_P2;PMS_P1;PMS_P2;Temp;Humidity;BMP_temperature;BMP_pressure;BME280_temperature;BME280_humidity;BME280_pressure;Samples;Min_cycle;Max_cycle;Signal;HPM_P1;HPM_P2
2021/05/19 00:00:11;;;;;;;;;;;10.00;99.30;;;;;;5090234;28;20420;-86
2021/05/19 00:02:42;;;;;;;;;;;10.00;99.30;;;;;;5107980;28;19908;-86
2021/05/19 00:05:08;;;;;;;;;;;10.00;99.30;;;;;;5107838;28;19923;-86
2021/05/19 00:07:33;;;;;;;;;;;10.00;99.30;;;;;;5092025;28;19912;-86
2021/05/19 00:09:59;;;;;;;;;;;9.90;99.20;;;;;;5107386;28;19915;-86
2021/05/19 00:12:24;;;;;;;;;;;9.80;99.30;;;;;;5107899;28;20388;-86
2021/05/19 00:14:50;;;;;;;;;;;9.90;99.20;;;;;;5107745;28;19918;-86
2021/05/19 00:17:24;;;;;;;;;;;9.80;99.20;;;;;;5091958;28;19915;-86
2021/05/19 00:19:58;;;;;;;;;;;9.80;99.30;;;;;;5107238;28;20352;-86
2021/05/19 00:22:26;;;;;;;;;;;9.80;99.20;;;;;;5090203;28;19924;-86
2021/05/19 00:24:51;;;;;;;;;;;9.80;99.50;;;;;;5090878;28;19912;-86
2021/05/19 00:27:17;;;;;;;;;;;9.80;99.20;;;;;;5109059;28;20411;-86
2021/05/19 00:29:42;;;;;;;;;;;9.70;99.30;;;;;;5110935;28;19915;-86
2021/05/19 00:32:08;;;;;;;;;;;9.70;99.40;;;;;;5111817;28;19951;-87
2021/05/19 00:34:33;;;;;;;;;;;9.70;99.30;;;;;;5111733;27;19916;-86
2021/05/19 00:36:59;;;;;;;;;;;9.70;99.20;;;;;;5095767;28;19915;-86
2021/05/19 00:39:24;;;;;;;;;;;9.70;99.40;;;;;;5110608;28;19945;-86
2021/05/19 00:41:50;;;;;;;;;;;9.70;99.60;;;;;;5111334;28;19912;-86
2021/05/19 00:44:18;;;;;;;;;;;9.70;99.40;;;;;;5095560;28;19909;-86
2021/05/19 00:46:45;;;;;;;;;;;9.70;99.50;;;;;;5095579;28;19912;-86
2021/05/19 00:49:11;;;;;;;;;;;9.80;99.40;;;;;;5094928;28;20296;-86
2021/05/19 00:51:37;;;;;;;;;;;9.80;99.40;;;;;;5111082;28;19908;-86
2021/05/19 00:54:03;;;;;;;;;;;9.70;99.40;;;;;;5110962;28;19912;-86
2021/05/19 00:56:28;;;;;;;;;;;9.70;99.70;;;;;;5110990;28;20365;-86
2021/05/19 00:58:55;;;;;;;;;;;9.70;99.50;;;;;;5110358;28;19923;-86
2021/05/19 01:01:20;;;;;;;;;;;9.70;99.50;;;;;;5110828;28;20367;-86
2021/05/19 01:03:47;;;;;;;;;;;9.60;99.60;;;;;;5110873;28;20005;-86
2021/05/19 01:06:19;;;;;;;;;;;9.70;99.60;;;;;;5110817;28;19918;-86
2021/05/19 01:11:30;;;;;;;;;;;9.70;99.80;;;;;;5095408;28;19915;-86
2021/05/19 01:13:57;;;;;;;;;;;9.70;99.60;;;;;;5094766;28;19942;-86
2021/05/19 01:16:22;;;;;;;;;;;9.70;99.60;;;;;;5110644;28;20319;-86
2021/05/19 01:18:48;;;;;;;;;;;9.60;99.70;;;;;;5110229;28;19908;-86
2021/05/19 01:21:14;;;;;;;;;;;9.60;99.90;;;;;;5094547;28;19981;-86
2021/05/19 01:23:40;;;;;;;;;;;9.70;99.90;;;;;;5110421;28;19908;-86
2021/05/19 01:26:06;;;;;;;;;;;9.60;99.60;;;;;;5094718;28;19908;-86
2021/05/19 01:28:32;;;;;;;;;;;9.70;99.70;;;;;;5110471;28;20306;-87
2021/05/19 01:30:58;;;;;;;;;;;9.80;99.80;;;;;;5109907;28;20257;-86
2021/05/19 01:33:23;;;;;;;;;;;9.90;99.90;;;;;;5110191;28;20337;-86
2021/05/19 01:35:49;;;;;;;;;;;10.00;99.90;;;;;;5110262;28;19908;-86
2021/05/19 01:38:15;;;;;;;;;;;10.00;99.90;;;;;;5109692;28;19916;-86
2021/05/19 01:40:41;;;;;;;;;;;10.00;99.90;;;;;;5093923;28;19916;-86
2021/05/19 01:43:07;;;;;;;;;;;9.90;99.90;;;;;;5094338;28;20288;-86
2021/05/19 01:45:32;;;;;;;;;;;9.90;99.90;;;;;;5094450;28;19909;-86
2021/05/19 01:47:58;;;;;;;;;;;9.80;99.90;;;;;;5110118;28;19928;-86
2021/05/19 01:50:23;;;;;;;;;;;9.90;99.90;;;;;;5093808;28;19915;-86
2021/05/19 01:52:51;;;;;;;;;;;9.90;99.90;;;;;;5109862;28;19912;-86
2021/05/19 01:55:17;;;;;;;;;;;9.90;99.90;;;;;;5109802;28;20023;-86
2021/05/19 01:57:43;;;;;;;;;;;9.80;99.90;;;;;;5109836;28;19955;-86
2021/05/19 02:00:09;;;;;;;;;;;9.80;99.90;;;;;;5093523;28;19919;-86
2021/05/19 02:02:35;;;;;;;;;;;9.80;99.90;;;;;;5109635;28;19908;-86
2021/05/19 02:05:01;;;;;;;;;;;9.80;99.90;;;;;;5109715;28;20265;-86
2021/05/19 02:07:27;;;;;;;;;;;9.70;99.90;;;;;;5109817;28;20283;-86
2021/05/19 02:09:52;;;;;;;;;;;9.80;99.90;;;;;;5109253;28;20000;-86
2021/05/19 02:12:18;;;;;;;;;;;9.70;99.90;;;;;;5113087;28;19916;-86
2021/05/19 02:14:44;;;;;;;;;;;9.60;99.90;;;;;;5113175;28;20372;-86
2021/05/19 02:17:10;;;;;;;;;;;9.80;99.90;;;;;;5113104;28;20317;-86
2021/05/19 02:19:36;;;;;;;;;;;9.80;99.90;;;;;;5108955;28;19908;-86
2021/05/19 02:22:01;;;;;;;;;;;9.80;99.90;;;;;;5109207;28;19958;-86
2021/05/19 02:24:27;;;;;;;;;;;9.80;99.90;;;;;;5109304;28;19956;-86
2021/05/19 02:26:53;;;;;;;;;;;9.90;99.90;;;;;;5093514;28;20319;-86
2021/05/19 02:29:18;;;;;;;;;;;9.90;99.90;;;;;;5108637;28;19978;-86
2021/05/19 02:31:44;;;;;;;;;;;9.90;99.90;;;;;;5109118;28;20368;-85
2021/05/19 02:34:10;;;;;;;;;;;9.90;99.90;;;;;;5109082;28;19912;-86
2021/05/19 02:36:35;;;;;;;;;;;9.80;99.90;;;;;;5093303;28;19908;-86
2021/05/19 02:39:02;;;;;;;;;;;9.90;99.90;;;;;;5092638;28;20364;-86
2021/05/19 02:41:28;;;;;;;;;;;9.90;99.90;;;;;;5108919;28;20361;-86
2021/05/19 02:43:53;;;;;;;;;;;9.90;99.90;;;;;;5109016;28;19919;-86
2021/05/19 02:46:19;;;;;;;;;;;9.90;99.90;;;;;;5108840;28;19915;-86
2021/05/19 02:48:44;;;;;;;;;;;10.00;99.90;;;;;;5108676;28;19915;-86
2021/05/19 02:51:10;;;;;;;;;;;9.90;99.90;;;;;;5107666;28;19912;-86
2021/05/19 02:53:36;;;;;;;;;;;10.00;99.90;;;;;;5108671;28;19960;-86
2021/05/19 02:56:03;;;;;;;;;;;10.00;99.90;;;;;;5108560;28;20030;-86
2021/05/19 02:58:29;;;;;;;;;;;10.00;99.90;;;;;;5107413;28;19908;-86
2021/05/19 03:00:55;;;;;;;;;;;10.00;99.90;;;;;;5091521;28;20017;-86
2021/05/19 03:03:21;;;;;;;;;;;10.10;99.90;;;;;;5108526;28;19908;-86
2021/05/19 03:05:46;;;;;;;;;;;10.10;99.90;;;;;;5092753;28;20360;-86
2021/05/19 03:08:12;;;;;;;;;;;10.20;99.90;;;;;;5092741;28;19908;-86
2021/05/19 03:10:37;;;;;;;;;;;10.20;99.90;;;;;;5107998;28;19909;-86
2021/05/19 03:13:03;;;;;;;;;;;10.20;99.90;;;;;;5108277;28;20019;-86
2021/05/19 03:15:29;;;;;;;;;;;10.30;99.90;;;;;;5108305;28;19912;-86
2021/05/19 03:17:55;;;;;;;;;;;10.30;99.90;;;;;;5108403;28;19908;-86
2021/05/19 03:20:20;;;;;;;;;;;10.20;99.90;;;;;;5107724;28;20365;-86
2021/05/19 03:22:46;;;;;;;;;;;10.20;99.90;;;;;;5108752;28;20179;-86
2021/05/19 03:25:11;;;;;;;;;;;10.20;99.90;;;;;;5108463;28;20415;-86
2021/05/19 03:27:37;;;;;;;;;;;10.20;99.90;;;;;;5092358;28;20311;-86
2021/05/19 03:30:04;;;;;;;;;;;10.20;99.90;;;;;;5092086;28;20002;-86
2021/05/19 03:32:30;;;;;;;;;;;10.10;99.90;;;;;;5108212;28;19915;-86
2021/05/19 03:34:55;;;;;;;;;;;10.10;99.90;;;;;;5108100;28;19912;-86
2021/05/19 03:37:21;;;;;;;;;;;10.20;99.90;;;;;;5108033;28;19965;-87
2021/05/19 03:39:46;;;;;;;;;;;10.10;99.90;;;;;;5107683;28;19912;-86
2021/05/19 03:42:12;;;;;;;;;;;10.10;99.90;;;;;;5108154;28;19915;-86
2021/05/19 03:44:37;;;;;;;;;;;10.00;99.90;;;;;;5108091;28;19915;-86
2021/05/19 03:47:03;;;;;;;;;;;10.10;99.90;;;;;;5108074;28;20318;-86
2021/05/19 03:49:32;;;;;;;;;;;10.10;99.90;;;;;;5107300;28;19908;-86
2021/05/19 03:51:57;;;;;;;;;;;10.10;99.90;;;;;;5108073;28;19909;-86
2021/05/19 03:54:23;;;;;;;;;;;10.10;99.90;;;;;;5108127;28;19934;-86
2021/05/19 03:56:51;;;;;;;;;;;10.00;99.90;;;;;;5092345;28;19930;-86
2021/05/19 03:59:16;;;;;;;;;;;10.10;99.90;;;;;;5091533;28;19908;-86
2021/05/19 04:01:42;;;;;;;;;;;10.10;99.90;;;;;;5110188;28;19919;-86
2021/05/19 04:04:08;;;;;;;;;;;10.10;99.90;;;;;;5111890;28;20348;-86
2021/05/19 04:06:33;;;;;;;;;;;10.00;99.90;;;;;;5111979;28;19912;-86
2021/05/19 04:08:59;;;;;;;;;;;10.10;99.90;;;;;;5095560;28;19953;-86
2021/05/19 04:11:24;;;;;;;;;;;10.00;99.90;;;;;;5096014;28;19908;-86
2021/05/19 04:13:50;;;;;;;;;;;10.00;99.90;;;;;;5095983;28;19912;-86
2021/05/19 04:16:15;;;;;;;;;;;10.00;99.90;;;;;;5112166;28;19915;-86
2021/05/19 04:18:41;;;;;;;;;;;10.10;99.90;;;;;;5111653;28;19909;-86
2021/05/19 04:21:07;;;;;;;;;;;10.10;99.90;;;;;;5095381;28;20289;-86
2021/05/19 04:23:33;;;;;;;;;;;10.00;99.90;;;;;;5111596;28;19908;-86
2021/05/19 04:25:58;;;;;;;;;;;9.90;99.90;;;;;;5111685;28;19961;-87
2021/05/19 04:28:24;;;;;;;;;;;10.00;99.90;;;;;;5095870;28;19954;-87
2021/05/19 04:30:50;;;;;;;;;;;10.00;99.90;;;;;;5111303;28;19908;-87
2021/05/19 04:33:17;;;;;;;;;;;10.00;99.90;;;;;;5111342;28;19908;-87
2021/05/19 04:35:43;;;;;;;;;;;10.00;99.90;;;;;;5111563;28;19916;-87
2021/05/19 04:38:08;;;;;;;;;;;10.20;99.90;;;;;;5111362;28;19922;-87
2021/05/19 04:40:34;;;;;;;;;;;10.20;99.90;;;;;;5095330;28;19912;-87
2021/05/19 04:43:04;;;;;;;;;;;10.30;99.90;;;;;;5111584;28;19909;-87
2021/05/19 04:45:30;;;;;;;;;;;10.30;99.90;;;;;;5111456;28;19961;-87
2021/05/19 04:47:55;;;;;;;;;;;10.40;99.90;;;;;;5116688;28;19991;-89
2021/05/19 04:50:21;;;;;;;;;;;10.50;99.90;;;;;;5110719;28;19915;-86
2021/05/19 04:52:46;;;;;;;;;;;10.50;99.90;;;;;;5095289;28;19908;-86
2021/05/19 04:55:12;;;;;;;;;;;10.50;99.90;;;;;;5095699;28;19919;-86
2021/05/19 04:57:38;;;;;;;;;;;10.60;99.90;;;;;;5110903;28;20330;-86
2021/05/19 05:00:05;;;;;;;;;;;10.70;99.90;;;;;;5110414;28;20304;-86
2021/05/19 05:02:30;;;;;;;;;;;10.70;99.90;;;;;;5095095;28;19908;-86
2021/05/19 05:04:56;;;;;;;;;;;10.70;99.90;;;;;;5111730;28;19970;-85
2021/05/19 05:07:22;;;;;;;;;;;10.70;99.80;;;;;;5111914;28;19907;-86
2021/05/19 05:09:47;;;;;;;;;;;10.80;99.90;;;;;;5095462;28;19915;-86
2021/05/19 05:12:14;;;;;;;;;;;10.80;99.80;;;;;;5095787;28;19909;-86
2021/05/19 05:14:39;;;;;;;;;;;10.90;99.80;;;;;;5095045;28;19938;-86
2021/05/19 05:17:05;;;;;;;;;;;10.90;99.80;;;;;;5110886;28;19908;-86
2021/05/19 05:19:30;;;;;;;;;;;10.90;99.60;;;;;;5094606;28;20429;-86
2021/05/19 05:21:56;;;;;;;;;;;11.00;99.40;;;;;;5095383;28;19915;-86
2021/05/19 05:24:21;;;;;;;;;;;11.00;99.40;;;;;;5111786;28;19908;-86
2021/05/19 05:26:47;;;;;;;;;;;11.00;99.40;;;;;;5112073;28;19908;-87
2021/05/19 05:29:12;;;;;;;;;;;11.00;99.30;;;;;;5111459;28;19919;-86
2021/05/19 05:31:38;;;;;;;;;;;11.10;99.10;;;;;;5111739;28;20006;-87
2021/05/19 05:34:03;;;;;;;;;;;11.00;99.20;;;;;;5111155;28;19923;-86
2021/05/19 05:36:29;;;;;;;;;;;11.00;98.90;;;;;;5110548;28;19915;-86
2021/05/19 05:38:54;;;;;;;;;;;11.10;99.00;;;;;;5094596;28;19922;-86
2021/05/19 05:41:20;;;;;;;;;;;11.10;98.60;;;;;;5112406;28;19908;-85
2021/05/19 05:43:45;;;;;;;;;;;11.10;98.60;;;;;;5110733;28;19954;-87
2021/05/19 05:46:11;;;;;;;;;;;11.10;98.70;;;;;;5110165;28;20360;-87
2021/05/19 05:48:37;;;;;;;;;;;11.20;98.40;;;;;;5110254;28;19998;-87
2021/05/19 05:51:02;;;;;;;;;;;11.20;97.90;;;;;;5109624;28;20074;-86
2021/05/19 05:53:28;;;;;;;;;;;11.10;98.30;;;;;;5109882;28;19908;-86
2021/05/19 05:55:53;;;;;;;;;;;11.20;97.90;;;;;;5111862;28;20376;-86
2021/05/19 05:58:19;;;;;;;;;;;11.20;97.90;;;;;;5109856;28;20446;-86
2021/05/19 06:00:44;;;;;;;;;;;11.30;98.20;;;;;;5109189;28;19908;-86
2021/05/19 06:03:10;;;;;;;;;;;11.30;98.20;;;;;;5094934;28;19908;-86
2021/05/19 06:05:35;;;;;;;;;;;11.30;98.20;;;;;;5110293;28;19909;-86
2021/05/19 06:08:03;;;;;;;;;;;11.40;98.10;;;;;;5094067;28;19912;-86
2021/05/19 06:10:29;;;;;;;;;;;11.40;98.10;;;;;;5110357;28;19908;-86
2021/05/19 06:12:55;;;;;;;;;;;11.40;97.90;;;;;;5109761;28;19908;-86
2021/05/19 06:15:20;;;;;;;;;;;11.30;97.70;;;;;;5094166;28;20464;-86
2021/05/19 06:17:46;;;;;;;;;;;11.30;97.50;;;;;;5094098;28;19908;-86
2021/05/19 06:20:12;;;;;;;;;;;11.40;97.70;;;;;;5093706;28;19939;-86
2021/05/19 06:22:38;;;;;;;;;;;11.40;98.10;;;;;;5110468;28;19959;-86
2021/05/19 06:25:04;;;;;;;;;;;11.40;98.20;;;;;;5108808;28;19958;-87
2021/05/19 06:27:29;;;;;;;;;;;11.40;97.80;;;;;;5109547;28;19957;-87
2021/05/19 06:29:55;;;;;;;;;;;11.40;98.50;;;;;;5109206;28;19951;-87
2021/05/19 06:32:20;;;;;;;;;;;11.40;98.30;;;;;;5110445;28;19915;-86
2021/05/19 06:34:46;;;;;;;;;;;11.40;98.30;;;;;;5109254;28;19916;-86
2021/05/19 06:37:11;;;;;;;;;;;11.40;98.10;;;;;;5093642;28;19916;-86
2021/05/19 06:39:37;;;;;;;;;;;11.40;98.00;;;;;;5093024;28;19923;-86
2021/05/19 06:42:02;;;;;;;;;;;11.50;98.20;;;;;;5109217;28;20467;-86
2021/05/19 06:44:28;;;;;;;;;;;11.50;97.80;;;;;;5108839;28;20250;-86
2021/05/19 06:46:53;;;;;;;;;;;11.50;97.90;;;;;;5109185;28;19912;-86
2021/05/19 06:49:19;;;;;;;;;;;11.50;97.70;;;;;;5108533;28;19982;-86
2021/05/19 06:51:45;;;;;;;;;;;11.50;97.20;;;;;;5109148;28;20308;-86
2021/05/19 06:54:11;;;;;;;;;;;11.40;97.10;;;;;;5108818;28;20003;-86
2021/05/19 06:56:36;;;;;;;;;;;11.50;97.20;;;;;;5108801;28;20004;-86
2021/05/19 06:59:02;;;;;;;;;;;11.40;97.40;;;;;;5092453;28;19961;-89
2021/05/19 07:01:28;;;;;;;;;;;11.50;97.20;;;;;;5093121;28;20344;-88
2021/05/19 07:03:53;;;;;;;;;;;11.60;97.30;;;;;;5108616;28;20380;-86
2021/05/19 07:06:19;;;;;;;;;;;11.60;96.90;;;;;;5108809;28;19908;-88
2021/05/19 07:08:45;;;;;;;;;;;11.50;96.70;;;;;;5108528;28;19930;-86
2021/05/19 07:11:11;;;;;;;;;;;11.60;96.70;;;;;;5092410;28;19908;-87
2021/05/19 07:13:36;;;;;;;;;;;11.60;96.80;;;;;;5108556;28;19908;-87
2021/05/19 07:16:02;;;;;;;;;;;11.60;96.60;;;;;;5092825;28;19951;-89
2021/05/19 07:18:28;;;;;;;;;;;11.60;96.70;;;;;;5108509;28;19916;-89
2021/05/19 07:20:54;;;;;;;;;;;11.70;96.80;;;;;;5092392;28;19916;-89
2021/05/19 07:23:20;;;;;;;;;;;11.70;96.70;;;;;;5108516;28;19909;-87
2021/05/19 07:25:45;;;;;;;;;;;11.70;96.80;;;;;;5092726;28;19908;-87
2021/05/19 07:28:11;;;;;;;;;;;11.80;97.00;;;;;;5092728;28;20010;-87
2021/05/19 07:30:37;;;;;;;;;;;11.80;97.10;;;;;;5107794;28;19908;-87
2021/05/19 07:33:02;;;;;;;;;;;11.90;97.10;;;;;;5108356;28;20273;-86
2021/05/19 07:35:29;;;;;;;;;;;11.90;97.10;;;;;;5092414;28;19912;-87
2021/05/19 07:37:54;;;;;;;;;;;11.90;97.00;;;;;;5108137;28;19924;-86
2021/05/19 07:40:22;;;;;;;;;;;12.00;97.10;;;;;;5107858;28;19908;-87
2021/05/19 07:42:47;;;;;;;;;;;12.00;96.80;;;;;;5092605;28;19994;-86
2021/05/19 07:45:13;;;;;;;;;;;12.00;96.70;;;;;;5108441;28;19908;-86
2021/05/19 07:47:38;;;;;;;;;;;12.00;96.50;;;;;;5092609;28;19915;-87
2021/05/19 07:50:05;;;;;;;;;;;12.00;96.40;;;;;;5107757;28;20033;-87
2021/05/19 07:52:30;;;;;;;;;;;12.00;96.70;;;;;;5108241;28;19985;-87
2021/05/19 07:54:56;;;;;;;;;;;12.00;97.10;;;;;;5108289;28;20431;-87
2021/05/19 07:57:25;;;;;;;;;;;12.00;96.60;;;;;;5092434;28;19935;-87
2021/05/19 08:00:07;;;;;;;;;;;12.10;96.60;;;;;;5092123;28;19908;-87
2021/05/19 08:02:32;;;;;;;;;;;12.10;96.60;;;;;;5108266;28;19915;-87
2021/05/19 08:04:58;;;;;;;;;;;12.10;96.50;;;;;;5092403;28;19908;-86
2021/05/19 08:07:23;;;;;;;;;;;12.10;96.50;;;;;;5108188;28;19916;-87
2021/05/19 08:09:49;;;;;;;;;;;12.10;96.60;;;;;;5107678;28;19954;-87
2021/05/19 08:12:14;;;;;;;;;;;12.10;96.10;;;;;;5108192;28;20390;-86
2021/05/19 08:14:40;;;;;;;;;;;12.10;95.50;;;;;;5108023;28;19919;-87
2021/05/19 08:17:05;;;;;;;;;;;12.20;95.80;;;;;;5108139;28;19912;-86
2021/05/19 08:19:31;;;;;;;;;;;12.20;95.40;;;;;;5107453;28;20414;-87
2021/05/19 08:21:56;;;;;;;;;;;12.30;95.70;;;;;;5108007;28;19908;-86
2021/05/19 08:24:22;;;;;;;;;;;12.30;95.70;;;;;;5108191;28;19916;-87
2021/05/19 08:26:47;;;;;;;;;;;12.30;95.50;;;;;;5093544;28;19909;-86
2021/05/19 08:29:13;;;;;;;;;;;12.30;95.40;;;;;;5107638;28;19912;-87
2021/05/19 08:31:39;;;;;;;;;;;12.30;95.50;;;;;;5108123;28;19909;-87
2021/05/19 08:34:04;;;;;;;;;;;12.30;95.80;;;;;;5107700;28;19912;-86
2021/05/19 08:36:31;;;;;;;;;;;12.30;95.40;;;;;;5107740;28;19908;-87
2021/05/19 08:38:57;;;;;;;;;;;12.30;95.60;;;;;;5106901;28;19946;-87
2021/05/19 08:41:22;;;;;;;;;;;12.40;95.90;;;;;;5091885;28;19943;-87
2021/05/19 08:43:48;;;;;;;;;;;12.40;95.90;;;;;;5107892;28;19995;-86
2021/05/19 08:46:14;;;;;;;;;;;12.40;95.90;;;;;;5107883;28;19961;-87
2021/05/19 08:48:40;;;;;;;;;;;12.40;95.90;;;;;;5094941;28;19973;-87
2021/05/19 08:51:06;;;;;;;;;;;12.40;96.10;;;;;;5112008;28;19908;-87
2021/05/19 08:53:32;;;;;;;;;;;12.40;96.10;;;;;;5114184;28;19913;-87
2021/05/19 08:55:58;;;;;;;;;;;12.40;95.50;;;;;;5111089;28;20372;-87
2021/05/19 08:58:24;;;;;;;;;;;12.30;95.20;;;;;;5111228;28;19955;-87
2021/05/19 09:00:49;;;;;;;;;;;12.40;94.50;;;;;;5094998;28;19908;-87
2021/05/19 09:03:16;;;;;;;;;;;12.30;94.40;;;;;;5111141;28;20357;-87
2021/05/19 09:05:43;;;;;;;;;;;12.30;94.60;;;;;;5110889;28;20376;-88
2021/05/19 09:08:12;;;;;;;;;;;12.40;94.50;;;;;;5110801;28;20338;-87
2021/05/19 09:10:40;;;;;;;;;;;12.50;94.30;;;;;;5110339;28;19937;-87
2021/05/19 09:13:06;;;;;;;;;;;12.50;94.50;;;;;;5110904;28;19994;-87
2021/05/19 09:15:47;;;;;;;;;;;12.60;94.30;;;;;;5094953;28;20007;-87
2021/05/19 09:18:13;;;;;;;;;;;12.50;93.90;;;;;;5094982;28;19916;-87
2021/05/19 09:20:43;;;;;;;;;;;12.50;94.10;;;;;;5110281;28;20280;-87
2021/05/19 09:23:15;;;;;;;;;;;12.60;94.20;;;;;;5110564;28;19909;-88
2021/05/19 09:25:41;;;;;;;;;;;12.60;94.30;;;;;;5110614;28;19915;-87
2021/05/19 09:28:07;;;;;;;;;;;12.60;94.20;;;;;;5094736;28;20325;-87
2021/05/19 09:30:37;;;;;;;;;;;12.60;93.30;;;;;;5094359;28;19915;-87
2021/05/19 09:33:10;;;;;;;;;;;12.60;93.40;;;;;;5110198;28;19951;-88
2021/05/19 09:35:37;;;;;;;;;;;12.60;93.50;;;;;;5094588;28;20010;-87
2021/05/19 09:38:02;;;;;;;;;;;12.60;93.50;;;;;;5110141;28;20258;-87
2021/05/19 09:40:28;;;;;;;;;;;12.60;93.50;;;;;;5109837;28;19908;-87
2021/05/19 09:42:58;;;;;;;;;;;12.60;93.70;;;;;;5110253;28;20380;-87
2021/05/19 09:45:42;;;;;;;;;;;12.70;93.60;;;;;;5110160;28;19912;-87
2021/05/19 09:48:07;;;;;;;;;;;12.70;93.30;;;;;;5094362;28;20316;-87
2021/05/19 09:50:40;;;;;;;;;;;12.80;93.60;;;;;;5093918;28;19985;-87
2021/05/19 09:53:10;;;;;;;;;;;12.80;93.70;;;;;;5094251;28;19908;-86
2021/05/19 09:55:37;;;;;;;;;;;12.90;93.20;;;;;;5094228;28;19918;-87
2021/05/19 09:58:03;;;;;;;;;;;13.00;93.30;;;;;;5094073;28;19991;-88
2021/05/19 10:00:29;;;;;;;;;;;13.00;92.90;;;;;;5093627;28;19912;-87
2021/05/19 10:02:55;;;;;;;;;;;13.00;92.90;;;;;;5094098;28;19912;-87
2021/05/19 10:05:25;;;;;;;;;;;12.90;92.90;;;;;;5109822;28;20377;-88
2021/05/19 10:07:53;;;;;;;;;;;12.90;93.40;;;;;;5093948;28;19961;-87
2021/05/19 10:10:18;;;;;;;;;;;13.00;93.60;;;;;;5109233;28;19908;-87
2021/05/19 10:12:45;;;;;;;;;;;13.00;93.30;;;;;;5109582;28;19965;-87
2021/05/19 10:15:17;;;;;;;;;;;13.00;93.30;;;;;;5109907;28;19965;-87
2021/05/19 10:17:44;;;;;;;;;;;13.00;93.10;;;;;;5094081;28;19912;-87
2021/05/19 10:20:15;;;;;;;;;;;13.10;93.30;;;;;;5109137;28;19927;-87
2021/05/19 10:22:43;;;;;;;;;;;13.20;92.80;;;;;;5109510;28;19908;-87
2021/05/19 10:25:19;;;;;;;;;;;13.20;92.30;;;;;;5109319;28;19908;-87
2021/05/19 10:27:52;;;;;;;;;;;13.20;92.40;;;;;;5093590;28;19908;-87
2021/05/19 10:30:36;;;;;;;;;;;13.20;91.80;;;;;;5092910;28;19908;-87
2021/05/19 10:33:02;;;;;;;;;;;13.20;92.00;;;;;;5093738;28;19908;-87
2021/05/19 10:35:28;;;;;;;;;;;13.20;92.10;;;;;;5093351;28;19912;-87
2021/05/19 10:37:56;;;;;;;;;;;13.20;92.50;;;;;;5093363;28;19919;-87
2021/05/19 10:40:22;;;;;;;;;;;13.20;92.30;;;;;;5108819;28;19961;-87
2021/05/19 10:43:01;;;;;;;;;;;13.30;91.90;;;;;;5109045;28;19912;-87
2021/05/19 10:45:27;;;;;;;;;;;13.40;91.40;;;;;;5093449;28;19908;-86
2021/05/19 10:47:53;;;;;;;;;;;13.50;90.40;;;;;;5093180;28;19923;-87
2021/05/19 10:58:52;;;;;;;;;;;13.60;90.90;;;;;;5093309;28;20263;-87
2021/05/19 11:01:42;;;;;;;;;;;13.70;91.00;;;;;;5108664;28;19915;-87
2021/05/19 11:04:15;;;;;;;;;;;13.90;90.60;;;;;;5089625;28;19908;-87
2021/05/19 11:06:56;;;;;;;;;;;13.90;90.60;;;;;;5108844;28;19915;-87
2021/05/19 11:09:27;;;;;;;;;;;14.00;90.30;;;;;;5092600;28;19915;-87
2021/05/19 11:12:13;;;;;;;;;;;14.10;90.20;;;;;;5092586;28;19912;-87
2021/05/19 11:14:51;;;;;;;;;;;14.10;89.20;;;;;;5088621;28;19959;-87
2021/05/19 11:17:31;;;;;;;;;;;14.00;88.40;;;;;;5092803;28;19912;-87
2021/05/19 11:19:56;;;;;;;;;;;14.00;89.10;;;;;;5092394;28;20003;-87
2021/05/19 11:22:22;;;;;;;;;;;13.90;88.30;;;;;;5108534;28;19951;-87
2021/05/19 11:24:47;;;;;;;;;;;13.90;88.50;;;;;;5092704;28;19986;-87
2021/05/19 11:27:32;;;;;;;;;;;13.90;89.20;;;;;;5108460;28;19909;-88
2021/05/19 11:29:58;;;;;;;;;;;14.10;89.10;;;;;;5092295;28;19916;-87
2021/05/19 11:32:25;;;;;;;;;;;14.10;86.90;;;;;;5108386;28;20314;-87
2021/05/19 11:34:51;;;;;;;;;;;14.10;87.20;;;;;;5108429;28;20273;-87
2021/05/19 11:37:18;;;;;;;;;;;14.10;88.30;;;;;;5108274;28;19909;-87
2021/05/19 11:39:50;;;;;;;;;;;14.10;87.30;;;;;;5098502;22;19935;-86
2021/05/19 11:42:28;;;;;;;;;;;14.00;87.40;;;;;;5072262;28;19909;-86
2021/05/19 11:44:55;;;;;;;;;;;14.00;88.10;;;;;;5071226;28;19940;-85
2021/05/19 11:47:33;;;;;;;;;;;14.00;87.80;;;;;;5071072;28;19950;-85
2021/05/19 11:50:20;;;;;;;;;;;14.00;87.40;;;;;;5050649;28;19909;-86
2021/05/19 11:52:49;;;;;;;;;;;14.00;87.00;;;;;;5051008;28;19913;-86
2021/05/19 11:55:31;;;;;;;;;;;14.00;85.90;;;;;;5052138;28;19913;-86
2021/05/19 11:58:06;;;;;;;;;;;14.10;87.10;;;;;;5051004;28;19909;-86
2021/05/19 12:00:32;;;;;;;;;;;14.10;88.50;;;;;;5051651;28;19956;-86
2021/05/19 12:02:58;;;;;;;;;;;14.00;91.40;;;;;;5051304;28;19932;-87
2021/05/19 12:05:24;;;;;;;;;;;13.80;93.70;;;;;;5051230;28;19909;-86
2021/05/19 12:07:50;;;;;;;;;;;13.50;95.10;;;;;;5050818;28;19932;-86
2021/05/19 12:10:15;;;;;;;;;;;13.50;96.00;;;;;;5050347;28;19912;-86
2021/05/19 12:12:41;;;;;;;;;;;13.40;94.50;;;;;;5050842;28;20284;-85
2021/05/19 12:15:07;;;;;;;;;;;13.40;94.60;;;;;;5050498;28;19923;-86
2021/05/19 12:17:33;;;;;;;;;;;13.40;94.20;;;;;;5050497;28;19995;-86
2021/05/19 12:19:59;;;;;;;;;;;13.40;92.50;;;;;;5050246;28;20182;-86
2021/05/19 12:22:24;;;;;;;;;;;13.40;93.20;;;;;;5050567;28;20296;-86
2021/05/19 12:24:51;;;;;;;;;;;13.40;92.70;;;;;;5054859;28;19908;-86
2021/05/19 12:27:21;;;;;;;;;;;13.50;92.60;;;;;;5054419;28;19996;-86
2021/05/19 12:29:50;;;;;;;;;;;13.50;92.40;;;;;;5054032;28;19908;-87
2021/05/19 12:32:15;;;;;;;;;;;13.70;91.40;;;;;;5054357;28;19916;-85
2021/05/19 12:34:41;;;;;;;;;;;13.90;90.90;;;;;;5054240;28;20456;-87
2021/05/19 12:37:07;;;;;;;;;;;14.00;90.40;;;;;;5054251;28;19912;-86
2021/05/19 12:39:34;;;;;;;;;;;14.00;90.40;;;;;;5053408;28;20381;-86
2021/05/19 12:42:11;;;;;;;;;;;14.10;90.80;;;;;;5054165;28;19909;-86
2021/05/19 12:44:36;;;;;;;;;;;14.20;90.50;;;;;;5054436;28;19962;-86
2021/05/19 12:47:06;;;;;;;;;;;14.20;89.50;;;;;;5054143;28;20452;-85
2021/05/19 12:49:33;;;;;;;;;;;14.30;88.50;;;;;;5054026;28;20003;-85
2021/05/19 12:51:59;;;;;;;;;;;14.40;86.30;;;;;;5054224;28;20023;-86
2021/05/19 12:54:37;;;;;;;;;;;14.50;87.00;;;;;;5055821;28;19928;-86
2021/05/19 12:57:02;;;;;;;;;;;14.60;87.50;;;;;;5056137;28;19912;-86
2021/05/19 12:59:28;;;;;;;;;;;14.70;85.40;;;;;;5053576;28;20003;-86
2021/05/19 13:01:54;;;;;;;;;;;14.80;85.80;;;;;;5054021;28;19909;-86
2021/05/19 13:04:21;;;;;;;;;;;14.80;85.60;;;;;;5054163;28;19909;-85
2021/05/19 13:06:53;;;;;;;;;;;14.90;85.60;;;;;;5058371;28;19916;-85
2021/05/19 13:09:24;;;;;;;;;;;14.90;81.70;;;;;;5057860;28;19931;-84
2021/05/19 13:12:09;;;;;;;;;;;15.00;81.30;;;;;;5058737;28;20004;-84
2021/05/19 13:14:42;;;;;;;;;;;15.00;82.10;;;;;;5059622;28;20441;-85
2021/05/19 13:17:27;;;;;;;;;;;15.00;82.50;;;;;;5058002;28;19909;-84
2021/05/19 13:20:23;;;;;;;;;;;14.90;81.60;;;;;;5057075;28;19909;-85
2021/05/19 13:23:02;;;;;;;;;;;14.80;82.50;;;;;;5071910;28;19956;-84
2021/05/19 13:25:28;;;;;;;;;;;14.70;84.00;;;;;;5058767;28;19913;-84
2021/05/19 13:27:54;;;;;;;;;;;13.90;90.50;;;;;;5058192;28;19955;-85
2021/05/19 13:30:22;;;;;;;;;;;13.50;92.00;;;;;;5057898;28;19908;-84
2021/05/19 13:33:20;;;;;;;;;;;13.30;92.60;;;;;;5058394;28;19995;-83
2021/05/19 13:38:21;;;;;;;;;;;13.00;92.90;;;;;;5059773;28;20017;-85
2021/05/19 13:40:47;;;;;;;;;;;12.90;93.10;;;;;;5057681;28;19920;-85
2021/05/19 13:43:13;;;;;;;;;;;12.80;93.60;;;;;;5058367;28;20289;-84
2021/05/19 13:45:38;;;;;;;;;;;12.80;93.10;;;;;;5058652;28;19915;-84
2021/05/19 13:48:04;;;;;;;;;;;12.70;93.10;;;;;;5058555;28;19944;-83
2021/05/19 13:50:30;;;;;;;;;;;12.60;93.10;;;;;;5059362;28;19909;-85
2021/05/19 13:52:58;;;;;;;;;;;12.60;93.40;;;;;;5058785;28;19909;-85
2021/05/19 13:55:24;;;;;;;;;;;12.50;93.30;;;;;;5059739;28;19920;-84
2021/05/19 13:57:49;;;;;;;;;;;12.40;93.70;;;;;;5054123;28;20421;-83
2021/05/19 14:00:15;;;;;;;;;;;12.40;93.20;;;;;;5052957;28;19917;-86
2021/05/19 14:02:40;;;;;;;;;;;12.40;93.70;;;;;;5052717;28;19947;-86
2021/05/19 14:05:06;;;;;;;;;;;12.40;94.90;;;;;;5052702;28;20365;-86
2021/05/19 14:07:32;;;;;;;;;;;12.40;95.70;;;;;;5052652;28;20027;-86
2021/05/19 14:09:57;;;;;;;;;;;12.30;96.60;;;;;;5051807;28;20379;-84
2021/05/19 14:15:33;;;;;;;;;;;12.40;97.20;;;;;;5057588;28;19913;-85
2021/05/19 14:28:27;;;;;;;;;;;12.50;96.10;;;;;;5053880;28;19920;-85
2021/05/19 14:30:52;;;;;;;;;;;12.40;96.00;;;;;;5053805;28;20369;-86
2021/05/19 14:33:18;;;;;;;;;;;12.40;95.90;;;;;;5054712;28;20403;-86
2021/05/19 15:00:57;;;;;;;;;;;12.60;94.70;;;;;;5052569;28;19916;-85
2021/05/19 15:03:23;;;;;;;;;;;12.70;95.10;;;;;;5050980;28;19912;-86
2021/05/19 15:05:52;;;;;;;;;;;12.70;94.60;;;;;;5053327;28;19991;-84
2021/05/19 15:08:18;;;;;;;;;;;12.70;94.50;;;;;;5034812;28;19917;-85
2021/05/19 15:10:46;;;;;;;;;;;12.70;94.40;;;;;;5052167;28;20007;-85